Adjuster:

Seasonal Box Office


INDEX BY QUARTER | INDEX BY YEAR | SEASON-TO-DATE

2014 - 2013 - 2012 - 2011 - 2010 - 2009 - 2008 - 2007 - 2006 - 2005 - 2004 - 2003 - 2002 - 2001 - 2000

Season-to-Date: Holiday
(The first Friday in November through New Year's week or weekend)
Data shown for Nov. 5–Dec. 26


#1–100 - #101–200 - #201–211
RowRankMovie Title (click to view)Studio
Gross / TheatersTotal Gross / % of TotalOpen
1159Frankie & AliceFree$10,6701$10,670100.0%-
233Gulliver's TravelsFox$6,307,6912,546$42,779,26114.7%12/25/10
3122The Illusionist (2010)SPC$38,5943$2,231,4741.7%12/25/10
478If You Are the One 2 (Fei Cheng Wu Rao II)CL$182,51720$426,89442.8%12/24/10
5178Oy Vey! My Son is Gay!SJI$4,0421$89,5074.5%12/24/10
6187HadewijchIFC$1,8921$5,00637.8%12/24/10
7194Summer WarsGK$1,4121$80,7681.7%12/24/10
88Little FockersUni.$45,083,8003,536$148,438,60030.4%12/22/10
912True GritPar.$36,041,0623,047$171,243,00521.0%12/22/10
1052Tees Maar KhanUTV$741,162108$1,076,44368.9%12/22/10
1180SomewhereFocus$172,9977$1,785,6459.7%12/22/10
12116Country StrongSGem$43,8652$20,218,9210.2%12/22/10
13189NenetteKino$1,7521$18,0099.7%12/22/10
145Tron LegacyBV$87,373,7033,451$172,062,76350.8%12/17/10
1513Yogi BearWB$35,912,1813,515$100,246,01135.8%12/17/10
1623How Do You KnowSony$15,001,5872,483$30,212,62049.7%12/17/10
1784Rabbit HoleLGF$166,77034$2,229,0587.5%12/17/10
1890Casino JackATO$110,06515$1,042,95910.6%12/17/10
19203To Die is HardDWOES$4791$4,54910.5%12/17/10
207The Chronicles of Narnia: The Voyage of the Dawn TreaderFox$62,597,0303,555$104,386,95060.0%12/10/10
219The TouristSony$40,850,3402,756$67,631,15760.4%12/10/10
2217The FighterPar.$26,659,7142,511$93,617,00928.5%12/10/10
2367No ProblemEros$285,46884$285,468100.0%12/10/10
2477The TempestMira.$188,96621$277,94368.0%12/10/10
25115Band Baaja BaaraatYash$44,00032$43,820100.4%12/10/10
26138Hemingway's Garden of EdenRAtt.$22,08314$22,083100.0%12/10/10
27139And Everything is Going FineIFC$21,0732$22,08095.4%12/10/10
28156ShoahIFC$11,3851$20,17556.4%12/10/10
29186You Won't Miss MeReelD$2,0001$2,24089.3%12/10/10
3016Black SwanFoxS$28,689,0601,466$106,954,67826.8%12/3/10
3134The Warrior's WayRela.$5,549,7321,622$5,666,34097.9%12/3/10
3251I Love You, Phillip MorrisRAtt.$762,30869$2,037,45937.4%12/3/10
3354The Polar Express (IMAX re-issue 2010)WB$598,00817$672,79688.9%12/3/10
3468All Good ThingsMagn.$262,15135$582,02445.0%12/3/10
3585Rare Exports: A Christmas TaleOsci.$162,50921$236,34768.8%12/3/10
36111Night Catches UsMagn.$47,6379$76,18562.5%12/3/10
37126BhuttoFRun$31,8084$100,20231.7%12/3/10
38136Saint Misbehavin': The Wavy Gravy MovieArgo.$23,8863$29,89379.9%12/3/10
39157ChristinaIndic.$11,000N/A$11,000100.0%12/3/10
40173Come Undone (2010)FM$5,2081$10,03551.9%12/3/10
4130The King's SpeechWein.$8,329,735700$135,453,1436.1%11/26/10
422TangledBV$143,695,3233,603$200,821,93671.6%11/24/10
4311BurlesqueSGem$36,738,5083,037$39,440,65593.1%11/24/10
4414Love and Other DrugsFox$30,863,1322,458$32,367,00595.4%11/24/10
4519FasterCBS$22,726,7072,470$23,240,02097.8%11/24/10
4657Break Ke BaadRelbig.$428,00085$427,628100.1%11/24/10
4776The Nutcracker in 3DFree$195,459115$195,459100.0%11/24/10
48124The Legend of Pale MaleBal.$33,1204$38,08387.0%11/24/10
491Harry Potter and the Deathly Hallows Part 1WB$272,994,6354,125$295,983,30592.2%11/19/10
5021The Next Three DaysLGF$21,052,2932,564$21,148,65199.5%11/19/10
5146GuzaarishUTV$1,017,335108$1,017,335100.0%11/19/10
5264Made in DagenhamSPC$330,70137$1,095,36930.2%11/19/10
5366Today's SpecialVita.$317,83155$317,831100.0%11/19/10
5472White MaterialIFC$235,32814$304,02077.4%11/19/10
55168Regina Spektor: Live In LondonCP$6,6849$6,684100.0%11/19/10
56181HeartlessIFC$3,6971$3,697100.0%11/19/10
57127William S. Burroughs: A Man WithinOsci.$31,3892$46,38067.7%11/17/10
586UnstoppableFox$78,511,8593,261$81,562,94296.3%11/12/10
5920SkylineUni.$21,393,6202,883$21,393,620100.0%11/12/10
6069Tiny FurnitureIFC$255,71421$391,67465.3%11/12/10
61105Cool ItRAtt.$62,71343$62,713100.0%11/12/10
62125Every Man for Himself (2010 re-issue)FDesk$32,0132$47,26267.7%11/12/10
63179Helena From the WeddingFM$3,9981$4,19095.4%11/12/10
6415Morning GloryPar.$30,663,0712,544$31,011,73298.9%11/10/10
653MegamindP/DW$142,686,3583,949$148,415,85396.1%11/5/10
664Due DateWB$98,320,5693,365$100,539,04397.8%11/5/10
6710For Colored GirlsLGF$37,650,8942,127$37,729,69899.8%11/5/10
6828127 HoursFoxS$9,862,158433$18,335,23053.8%11/5/10
6929Fair Game (2010)Sum.$8,895,867436$9,540,69193.2%11/5/10
7045Golmaal 3Eros$1,132,00086$1,132,192100.0%11/5/10
7173Four LionsDrft.$224,97214$304,61673.9%11/5/10
7283Client 9: The Rise and Fall of Eliot SpitzerMagn.$167,23717$189,41688.3%11/5/10
73143Guy and Madeline on a Park BenchVari.$19,5572$35,55655.0%11/5/10
74146Red HillStrand$16,7035$21,08779.2%11/5/10
75154Violet TendenciesEmbr.$11,5651$13,30486.9%11/5/10
7622Saw 3DLGF$15,109,4702,808$45,710,17833.1%10/29/10
7735The Girl Who Kicked the Hornet's NestMBox$3,694,372208$5,190,19671.2%10/29/10
7874MonstersMagn.$205,27125$237,30186.5%10/29/10
7992Welcome to the RileysGold.$98,96911$158,89862.3%10/29/10
8096Waste LandArth.$91,2138$187,71648.6%10/29/10
81101Inspector BellamyIFC$75,8254$107,61270.5%10/29/10
82102Wild TargetFree$75,30113$108,58969.3%10/29/10
83131Aftershock (Tangshan Dadizhen)CL$28,67523$62,96245.5%10/29/10
84171The Kids Grow UpShad.$5,7591$12,09547.6%10/29/10
85192EichmannReg.$1,6321$2,70660.3%10/29/10
86204Shake Hands with the DevilReg.$3871$59465.2%10/29/10
87209The Magician (2010)Reg.$1371$40633.7%10/29/10
88117Strange Powers: Stephin Merritt and the Magnetic FieldsVari.$42,5305$68,71961.9%10/27/10
8924Paranormal Activity 2Par.$14,612,7213,168$84,752,90717.2%10/22/10
90142Boxing GymZipp.$19,8017$32,47661.0%10/22/10
91177The TaqwacoresStrand$4,1612$11,44536.4%10/22/10
92210BearCityTLA$-20N/A$5,980-0.3%10/22/10
9318RedSum.$25,878,6773,229$90,380,16228.6%10/15/10
9426Jackass 3-DPar.$11,244,9982,165$117,229,6929.6%10/15/10
9531HereafterWB$7,932,1502,365$32,746,94124.2%10/15/10
9636ConvictionFoxS$3,616,985672$6,783,12953.3%10/15/10
9793N'SecureFree$98,453105$2,595,6443.8%10/15/10
98119CarlosIFC$41,0015$145,52628.2%10/15/10
99148The Trouble with TerkelIndic.$14,8104$40,38536.7%10/15/10
10071VisionZeit.$236,92217$435,27454.4%10/13/10
Summary of 211 Movies on Chart:
Totals:$1,503,971,382----
Averages:$7,127,826----
#1–100 - #101–200 - #201–211



2014 - 2013 - 2012 - 2011 - 2010 - 2009 - 2008 - 2007 - 2006 - 2005 - 2004 - 2003 - 2002 - 2001 - 2000

Season-to-Date: Holiday
(The first Friday in November through New Year's week or weekend)
Data shown for Nov. 5–Dec. 26


Note: Quarter-to-Date data is displayed for CALENDAR GROSSES only, i.e., all movies playing during the above time period and their grosses (or estimated grosses). Click here for a full explanation of the various box office sections.